Agency, Missouri
Current Conditions -  °F | °C
As of 6:45 AM on Monday 20 Oct 2014 (Local Time) from KSTJ Reporting Station
Haze Haze  
Wind Chill: 38°   Ceiling: 200
Heat Index: 41°   Visibility: 2mi
Dew Point: 41°   Wind: 5mph
Humidity: 100%   Direction: 320°NW
Pressure: 30.01"   Gusts: NA
Location:  39.64°N, 94.74°W
Report Text: KSTJ 201145Z AUTO 32004KT 2SM R35/2000V3000FT BR BKN002 05/05 A3001 RMK AO2 T00500050 $
Loading
Personal Weather Stations






























Interactive Weather Map
Tropical Storm Tracking
New forecast layout! Learn more

10-Day Weather Forecast

Advertisements
Track Severe Weather on mobile